createdAt,value
2023-02-12T00:01:25.637Z,102091.00
2023-02-12T00:03:54.035Z,102096.00
2023-02-12T00:06:22.872Z,102091.00
2023-02-12T00:08:51.969Z,102095.00
2023-02-12T00:11:22.381Z,102102.00
2023-02-12T00:13:50.723Z,102094.00
2023-02-12T00:16:21.699Z,102098.00
2023-02-12T00:18:53.134Z,102096.00
2023-02-12T00:21:22.008Z,102098.00
2023-02-12T00:23:50.133Z,102103.00
2023-02-12T00:26:19.821Z,102104.00
2023-02-12T00:28:50.933Z,102111.00
2023-02-12T00:31:24.575Z,102112.00
2023-02-12T00:33:52.507Z,102116.00
2023-02-12T00:36:22.897Z,102109.00
2023-02-12T00:38:53.095Z,102115.00
2023-02-12T00:41:21.164Z,102112.00
2023-02-12T00:43:49.174Z,102108.00
2023-02-12T00:46:17.587Z,102116.00
2023-02-12T00:48:45.505Z,102115.00
2023-02-12T00:51:13.736Z,102113.00
2023-02-12T00:53:41.668Z,102120.00
2023-02-12T00:56:09.444Z,102128.00
2023-02-12T00:58:37.391Z,102118.00
2023-02-12T01:01:07.890Z,102115.00
2023-02-12T01:03:37.211Z,102125.00
2023-02-12T01:06:06.204Z,102127.00
2023-02-12T01:08:34.178Z,102126.00
2023-02-12T01:11:03.851Z,102129.00
2023-02-12T01:13:33.040Z,102129.00
2023-02-12T01:16:09.105Z,102133.00
2023-02-12T01:18:37.981Z,102137.00
2023-02-12T01:21:12.214Z,102145.00
2023-02-12T01:23:40.917Z,102140.00
2023-02-12T01:26:11.002Z,102136.00
2023-02-12T01:28:40.727Z,102133.00
2023-02-12T01:31:14.956Z,102136.00
2023-02-12T01:33:43.895Z,102139.00
2023-02-12T01:36:12.590Z,102131.00
2023-02-12T01:38:40.820Z,102133.00
2023-02-12T01:41:15.588Z,102130.00
2023-02-12T01:43:44.229Z,102131.00
2023-02-12T01:46:15.088Z,102129.00
2023-02-12T01:48:45.389Z,102116.00
2023-02-12T01:51:19.418Z,102127.00
2023-02-12T01:53:52.817Z,102116.00
2023-02-12T01:56:21.560Z,102118.00
2023-02-12T01:58:52.038Z,102125.00
2023-02-12T02:01:23.588Z,102121.00
2023-02-12T02:03:55.019Z,102126.00
2023-02-12T02:06:51.262Z,102118.00
2023-02-12T02:09:20.337Z,102130.00
2023-02-12T02:12:06.926Z,102129.00
2023-02-12T02:14:35.838Z,102128.00
2023-02-12T02:17:16.410Z,102129.00
2023-02-12T02:20:22.555Z,102131.00
2023-02-12T02:22:53.264Z,102133.00
2023-02-12T02:25:39.100Z,102138.00
2023-02-12T02:28:12.895Z,102139.00
2023-02-12T02:31:04.524Z,102128.00
2023-02-12T02:33:44.605Z,102133.00
2023-02-12T02:36:15.227Z,102127.00
2023-02-12T02:38:57.429Z,102135.00
2023-02-12T02:41:37.075Z,102132.00
2023-02-12T02:44:10.504Z,102126.00
2023-02-12T02:46:50.906Z,102121.00
2023-02-12T02:49:26.630Z,102129.00
2023-02-12T02:52:00.355Z,102118.00
2023-02-12T02:54:37.958Z,102117.00
2023-02-12T02:57:16.544Z,102107.00
2023-02-12T02:59:48.702Z,102115.00
2023-02-12T03:02:26.079Z,102119.00
2023-02-12T03:04:58.597Z,102121.00
2023-02-12T03:07:30.111Z,102116.00
2023-02-12T03:10:12.294Z,102126.00
2023-02-12T03:12:44.294Z,102133.00
2023-02-12T03:15:21.273Z,102137.00
2023-02-12T03:17:50.381Z,102145.00
2023-02-12T03:20:30.804Z,102157.00
2023-02-12T03:23:07.475Z,102143.00
2023-02-12T03:25:59.025Z,102147.00
2023-02-12T03:28:35.759Z,102144.00
2023-02-12T03:31:25.696Z,102145.00
2023-02-12T03:34:02.960Z,102145.00
2023-02-12T03:36:45.716Z,102154.00
2023-02-12T03:39:21.963Z,102150.00
2023-02-12T03:42:02.090Z,102151.00
2023-02-12T03:44:45.354Z,102151.00
2023-02-12T03:47:28.715Z,102152.00
2023-02-12T03:50:18.592Z,102160.00
2023-02-12T03:52:46.958Z,102161.00
2023-02-12T03:55:16.350Z,102156.00
2023-02-12T03:57:53.693Z,102142.00
2023-02-12T04:00:24.577Z,102152.00
2023-02-12T04:02:53.462Z,102152.00
2023-02-12T04:05:30.682Z,102150.00
2023-02-12T04:07:59.899Z,102161.00
2023-02-12T04:10:51.121Z,102162.00
2023-02-12T04:13:29.309Z,102172.00
2023-02-12T04:16:51.546Z,102173.00
2023-02-12T04:19:55.834Z,102188.00
2023-02-12T04:22:45.591Z,102184.00
2023-02-12T04:25:52.097Z,102185.00
2023-02-12T04:28:47.490Z,102186.00
2023-02-12T04:31:25.605Z,102191.00
2023-02-12T04:34:23.911Z,102191.00
2023-02-12T04:37:27.246Z,102192.00
2023-02-12T04:39:55.291Z,102192.00
2023-02-12T08:34:34.658Z,102339.00
2023-02-12T08:37:04.237Z,102343.00
2023-02-12T08:39:32.123Z,102347.00
2023-02-12T08:45:54.025Z,102344.00
2023-02-12T08:48:21.815Z,102356.00
2023-02-12T08:50:49.284Z,102360.00
2023-02-12T08:53:17.373Z,102361.00
2023-02-12T08:55:51.125Z,102359.00
2023-02-12T08:58:18.599Z,102370.00
2023-02-12T09:00:47.919Z,102368.00
2023-02-12T09:03:15.636Z,102360.00
2023-02-12T09:05:43.290Z,102363.00
2023-02-12T09:08:10.752Z,102365.00
2023-02-12T09:10:43.010Z,102367.00
2023-02-12T09:13:12.801Z,102371.00
2023-02-12T09:15:45.275Z,102371.00
2023-02-12T09:18:14.839Z,102366.00
2023-02-12T09:20:45.320Z,102362.00
2023-02-12T09:23:14.917Z,102371.00
2023-02-12T09:25:45.309Z,102367.00
2023-02-12T09:28:14.840Z,102371.00
2023-02-12T09:30:42.421Z,102372.00
2023-02-12T09:33:12.317Z,102394.00
2023-02-12T09:35:40.892Z,102391.00
2023-02-12T09:38:09.427Z,102387.00
2023-02-12T09:41:05.233Z,102395.00
2023-02-12T09:44:02.012Z,102390.00
2023-02-12T09:46:40.005Z,102401.00
2023-02-12T09:49:37.322Z,102399.00
2023-02-12T09:52:05.890Z,102408.00
2023-02-12T09:54:39.602Z,102403.00
2023-02-12T09:57:17.284Z,102411.00
2023-02-12T09:59:59.654Z,102404.00
2023-02-12T10:02:27.791Z,102405.00
2023-02-12T10:05:01.554Z,102411.00
2023-02-12T10:07:45.578Z,102409.00
2023-02-12T10:10:31.824Z,102399.00
2023-02-12T10:13:20.429Z,102400.00
2023-02-12T10:16:14.482Z,102401.00
2023-02-12T10:18:52.995Z,102402.00
2023-02-12T10:21:45.088Z,102402.00
2023-02-12T10:24:27.832Z,102404.00
2023-02-12T10:27:18.157Z,102408.00
2023-02-12T10:29:47.791Z,102412.00
2023-02-12T10:32:26.661Z,102402.00
2023-02-12T10:34:55.319Z,102410.00
2023-02-12T10:37:37.843Z,102410.00
2023-02-12T10:40:23.932Z,102414.00
2023-02-12T10:42:53.038Z,102415.00
2023-02-12T10:45:30.500Z,102417.00
2023-02-12T10:48:21.569Z,102412.00
2023-02-12T10:51:08.942Z,102410.00
2023-02-12T10:53:43.344Z,102408.00
2023-02-12T10:56:19.764Z,102410.00
2023-02-12T10:58:59.812Z,102408.00
2023-02-12T11:01:29.556Z,102406.00
2023-02-12T11:03:59.282Z,102405.00
2023-02-12T11:06:34.582Z,102402.00
2023-02-12T11:09:13.771Z,102406.00
2023-02-12T11:11:41.651Z,102401.00
2023-02-12T11:14:20.913Z,102412.00
2023-02-12T11:16:57.463Z,102400.00
2023-02-12T11:19:30.673Z,102395.00
2023-02-12T11:22:19.245Z,102390.00
2023-02-12T11:24:47.588Z,102390.00
2023-02-12T11:27:28.859Z,102388.00
2023-02-12T11:30:12.759Z,102396.00
2023-02-12T11:32:44.426Z,102391.00
2023-02-12T11:35:33.956Z,102391.00
2023-02-12T11:38:02.862Z,102385.00
2023-02-12T11:40:34.549Z,102386.00
2023-02-12T11:43:09.675Z,102381.00
2023-02-12T11:45:55.801Z,102374.00
2023-02-12T11:48:30.827Z,102370.00
2023-02-12T11:51:00.831Z,102374.00
2023-02-12T11:53:32.853Z,102365.00
2023-02-12T11:56:04.424Z,102371.00
2023-02-12T11:58:33.327Z,102369.00
2023-02-12T12:01:19.565Z,102363.00
2023-02-12T12:04:20.533Z,102373.00
2023-02-12T12:06:59.198Z,102373.00
2023-02-12T12:09:42.478Z,102369.00
2023-02-12T12:12:23.233Z,102367.00
2023-02-12T12:15:29.053Z,102363.00
2023-02-12T12:18:36.419Z,102364.00
2023-02-12T12:21:25.409Z,102367.00
2023-02-12T12:23:59.967Z,102366.00
2023-02-12T12:26:34.543Z,102366.00
2023-02-12T12:29:24.964Z,102368.00
2023-02-12T12:32:00.465Z,102361.00
2023-02-12T12:34:29.381Z,102361.00
2023-02-12T12:37:17.169Z,102364.00
2023-02-12T12:40:03.420Z,102370.00
2023-02-12T12:45:29.963Z,102356.00
2023-02-12T12:48:25.662Z,102352.00
2023-02-12T12:51:25.932Z,102350.00
2023-02-12T12:54:25.708Z,102346.00
2023-02-12T12:57:28.275Z,102341.00
2023-02-12T13:00:30.701Z,102341.00
2023-02-12T13:03:10.069Z,102335.00
2023-02-12T13:05:59.921Z,102335.00
2023-02-12T13:08:52.085Z,102340.00
2023-02-12T13:11:38.302Z,102336.00
2023-02-12T13:14:16.134Z,102329.00
2023-02-12T13:17:12.703Z,102325.00
2023-02-12T13:19:49.786Z,102324.00
2023-02-12T13:22:31.355Z,102313.00
2023-02-12T13:25:16.761Z,102321.00
2023-02-12T13:27:45.241Z,102321.00
2023-02-12T13:30:56.926Z,102317.00
2023-02-12T13:33:43.730Z,102316.00
2023-02-12T13:36:14.175Z,102316.00
2023-02-12T13:39:23.042Z,102322.00
2023-02-12T13:42:08.047Z,102315.00
2023-02-12T13:44:57.456Z,102321.00
2023-02-12T13:47:49.822Z,102319.00
2023-02-12T13:50:44.894Z,102314.00
2023-02-12T13:53:32.189Z,102309.00
2023-02-12T13:56:15.983Z,102312.00
2023-02-12T13:58:52.277Z,102311.00
2023-02-12T14:01:38.944Z,102304.00
2023-02-12T14:04:22.309Z,102304.00
2023-02-12T14:07:16.572Z,102307.00
2023-02-12T14:09:55.598Z,102311.00
2023-02-12T14:12:26.679Z,102299.00
2023-02-12T14:14:57.127Z,102302.00
2023-02-12T14:17:31.045Z,102306.00
2023-02-12T14:20:26.024Z,102309.00
2023-02-12T14:23:04.212Z,102301.00
2023-02-12T14:25:40.462Z,102303.00
2023-02-12T14:28:15.862Z,102311.00
2023-02-12T14:30:44.832Z,102303.00
2023-02-12T14:33:22.033Z,102305.00
2023-02-12T14:36:11.024Z,102306.00
2023-02-12T14:38:47.500Z,102305.00
2023-02-12T14:41:55.751Z,102308.00
2023-02-12T14:44:23.499Z,102309.00
2023-02-12T14:47:13.021Z,102303.00
2023-02-12T14:49:52.847Z,102317.00
2023-02-12T14:52:25.606Z,102319.00
2023-02-12T14:55:02.314Z,102309.00
2023-02-12T14:57:30.337Z,102319.00
2023-02-12T15:00:04.401Z,102321.00
2023-02-12T15:02:39.973Z,102326.00
2023-02-12T15:05:26.461Z,102319.00
2023-02-12T15:08:00.856Z,102317.00
2023-02-12T15:10:40.760Z,102321.00
2023-02-12T15:13:14.439Z,102313.00
2023-02-12T15:16:10.890Z,102320.00
2023-02-12T15:18:41.572Z,102327.00
2023-02-12T15:21:23.216Z,102326.00
2023-02-12T15:24:07.657Z,102319.00
2023-02-12T15:26:59.536Z,102318.00
2023-02-12T15:29:36.819Z,102315.00
2023-02-12T15:32:07.459Z,102308.00
2023-02-12T15:34:40.220Z,102316.00
2023-02-12T15:37:11.673Z,102314.00
2023-02-12T15:39:45.155Z,102320.00
2023-02-12T15:42:34.411Z,102319.00
2023-02-12T15:45:20.647Z,102311.00
2023-02-12T15:48:09.357Z,102313.00
2023-02-12T15:50:56.520Z,102306.00
2023-02-12T15:53:27.628Z,102303.00
2023-02-12T15:55:56.119Z,102308.00
2023-02-12T15:58:52.691Z,102305.00
2023-02-12T16:01:28.343Z,102300.00
2023-02-12T16:04:00.920Z,102306.00
2023-02-12T16:06:31.352Z,102306.00
2023-02-12T16:09:34.634Z,102305.00
2023-02-12T16:12:11.480Z,102308.00
2023-02-12T16:14:46.661Z,102310.00
2023-02-12T16:17:33.653Z,102310.00
2023-02-12T16:20:22.981Z,102310.00
2023-02-12T16:22:52.124Z,102316.00
2023-02-12T16:25:28.987Z,102318.00
2023-02-12T16:28:06.168Z,102320.00
2023-02-12T16:30:43.047Z,102322.00
2023-02-12T16:33:32.588Z,102322.00
2023-02-12T16:36:06.843Z,102320.00
2023-02-12T16:38:45.252Z,102324.00
2023-02-12T16:41:24.369Z,102328.00
2023-02-12T16:44:18.386Z,102331.00
2023-02-12T16:46:55.280Z,102324.00
2023-02-12T16:49:25.773Z,102328.00
2023-02-12T16:51:56.691Z,102332.00
2023-02-12T16:54:32.097Z,102337.00
2023-02-12T16:57:00.474Z,102335.00
2023-02-12T16:59:31.872Z,102339.00
2023-02-12T17:02:02.922Z,102338.00
2023-02-12T17:04:31.444Z,102340.00
2023-02-12T17:06:59.352Z,102339.00
2023-02-12T17:09:29.928Z,102345.00
2023-02-12T17:11:58.816Z,102338.00
2023-02-12T17:14:26.748Z,102343.00
2023-02-12T17:16:54.774Z,102335.00
2023-02-12T17:19:23.074Z,102339.00
2023-02-12T17:21:52.170Z,102345.00
2023-02-12T17:24:24.472Z,102350.00
2023-02-12T17:26:55.882Z,102344.00
2023-02-12T17:29:25.288Z,102354.00
2023-02-12T17:31:54.262Z,102354.00
2023-02-12T17:34:23.472Z,102352.00
2023-02-12T17:36:51.658Z,102366.00
2023-02-12T17:39:28.077Z,102357.00
2023-02-12T17:41:56.242Z,102368.00
2023-02-12T17:44:24.058Z,102361.00
2023-02-12T17:46:52.112Z,102364.00
2023-02-12T17:49:20.328Z,102381.00
2023-02-12T17:51:48.233Z,102369.00
2023-02-12T17:54:17.932Z,102371.00
2023-02-12T17:56:45.877Z,102372.00
2023-02-12T17:59:14.047Z,102374.00
2023-02-12T18:01:42.235Z,102369.00
2023-02-12T18:04:10.076Z,102372.00
2023-02-12T18:06:38.032Z,102370.00
2023-02-12T18:09:06.424Z,102371.00
2023-02-12T18:11:34.629Z,102376.00
2023-02-12T18:14:02.692Z,102371.00
2023-02-12T18:16:33.542Z,102375.00
2023-02-12T18:19:04.553Z,102371.00
2023-02-12T18:21:34.155Z,102381.00
2023-02-12T18:24:02.507Z,102376.00
2023-02-12T18:26:30.530Z,102388.00
2023-02-12T18:28:59.528Z,102375.00
2023-02-12T18:31:30.305Z,102381.00
2023-02-12T18:33:58.907Z,102389.00
2023-02-12T18:36:27.080Z,102382.00
2023-02-12T18:38:55.061Z,102388.00
2023-02-12T18:41:25.607Z,102392.00
2023-02-12T18:43:55.009Z,102385.00
2023-02-12T18:46:25.626Z,102386.00
2023-02-12T18:48:54.281Z,102389.00
2023-02-12T18:51:27.392Z,102381.00
2023-02-12T18:53:56.683Z,102402.00
2023-02-12T18:56:24.476Z,102388.00
2023-02-12T18:58:57.086Z,102387.00
2023-02-12T19:01:25.483Z,102388.00
2023-02-12T19:04:00.251Z,102392.00
2023-02-12T19:06:29.007Z,102396.00
2023-02-12T19:09:02.078Z,102397.00
2023-02-12T19:11:31.150Z,102396.00
2023-02-12T19:13:59.328Z,102400.00
2023-02-12T19:16:27.634Z,102407.00
2023-02-12T19:18:58.586Z,102404.00
2023-02-12T19:21:26.814Z,102401.00
2023-02-12T19:23:56.185Z,102412.00
2023-02-12T19:26:24.503Z,102404.00
2023-02-12T19:28:52.329Z,102408.00
2023-02-12T19:31:22.745Z,102413.00
2023-02-12T19:33:53.970Z,102401.00
2023-02-12T19:36:24.443Z,102404.00
2023-02-12T19:38:53.113Z,102409.00
2023-02-12T19:44:51.105Z,102415.00
2023-02-12T19:47:18.988Z,102406.00
2023-02-12T19:49:46.891Z,102405.00
2023-02-12T19:52:14.542Z,102407.00
2023-02-12T19:54:45.421Z,102399.00
2023-02-12T19:57:13.641Z,102399.00
2023-02-12T19:59:45.208Z,102404.00
2023-02-12T20:02:16.158Z,102404.00
2023-02-12T20:04:44.699Z,102398.00
2023-02-12T20:07:12.583Z,102398.00
2023-02-12T20:09:40.573Z,102402.00
2023-02-12T20:12:11.809Z,102403.00
2023-02-12T20:14:39.821Z,102403.00
2023-02-12T20:17:07.735Z,102405.00
2023-02-12T20:19:38.765Z,102403.00
2023-02-12T20:22:06.688Z,102405.00
2023-02-12T20:24:35.436Z,102410.00
2023-02-12T20:27:06.745Z,102409.00
2023-02-12T20:29:34.860Z,102410.00
2023-02-12T20:32:02.696Z,102412.00
2023-02-12T20:34:33.033Z,102413.00
2023-02-12T20:37:08.249Z,102412.00
2023-02-12T20:39:36.190Z,102411.00
2023-02-12T20:42:04.355Z,102418.00
2023-02-12T20:44:34.342Z,102421.00
2023-02-12T20:47:03.072Z,102424.00
2023-02-12T20:49:30.912Z,102418.00
2023-02-12T20:51:58.875Z,102423.00
2023-02-12T20:54:26.762Z,102417.00
2023-02-12T20:56:54.641Z,102423.00
2023-02-12T20:59:22.433Z,102419.00
2023-02-12T21:01:50.348Z,102414.00
2023-02-12T21:04:19.231Z,102417.00
2023-02-12T21:06:48.725Z,102415.00
2023-02-12T21:09:17.276Z,102419.00
2023-02-12T21:11:48.223Z,102408.00
2023-02-12T21:14:24.511Z,102407.00
2023-02-12T21:16:55.240Z,102413.00
2023-02-12T21:19:23.217Z,102414.00
2023-02-12T21:21:51.380Z,102414.00
2023-02-12T21:24:22.098Z,102412.00
2023-02-12T21:26:50.948Z,102409.00
2023-02-12T21:29:19.272Z,102413.00
2023-02-12T21:31:49.312Z,102409.00
2023-02-12T21:34:20.646Z,102410.00
2023-02-12T21:36:49.438Z,102413.00
2023-02-12T21:39:27.556Z,102407.00
2023-02-12T21:42:02.566Z,102408.00
2023-02-12T21:44:31.181Z,102402.00
2023-02-12T21:47:01.943Z,102405.00
2023-02-12T21:49:29.986Z,102408.00
2023-02-12T21:51:59.861Z,102412.00
2023-02-12T21:54:29.051Z,102405.00
2023-02-12T21:56:57.181Z,102408.00
2023-02-12T21:59:25.359Z,102409.00
2023-02-12T22:01:58.884Z,102403.00
2023-02-12T22:04:27.091Z,102395.00
2023-02-12T22:06:56.679Z,102395.00
2023-02-12T22:09:24.685Z,102389.00
2023-02-12T22:11:52.892Z,102395.00
2023-02-12T22:14:21.783Z,102387.00
2023-02-12T22:16:49.984Z,102384.00
2023-02-12T22:19:17.929Z,102395.00
2023-02-12T22:21:45.987Z,102394.00
2023-02-12T22:24:16.133Z,102389.00
2023-02-12T22:26:44.680Z,102386.00
2023-02-12T22:29:15.194Z,102399.00
2023-02-12T22:31:44.385Z,102404.00
2023-02-12T22:34:16.938Z,102394.00
2023-02-12T22:36:45.768Z,102394.00
2023-02-12T22:39:14.586Z,102390.00
2023-02-12T22:41:42.630Z,102394.00
2023-02-12T22:44:13.515Z,102395.00
2023-02-12T22:46:42.496Z,102399.00
2023-02-12T22:49:10.696Z,102391.00
2023-02-12T22:51:40.221Z,102393.00
2023-02-12T22:54:10.690Z,102395.00
2023-02-12T22:56:38.497Z,102392.00
2023-02-12T22:59:06.497Z,102390.00
2023-02-12T23:01:34.529Z,102399.00
2023-02-12T23:04:02.411Z,102396.00
2023-02-12T23:06:31.521Z,102399.00
2023-02-12T23:09:03.221Z,102398.00
2023-02-12T23:11:32.670Z,102406.00
2023-02-12T23:14:01.405Z,102399.00
2023-02-12T23:16:29.883Z,102399.00
2023-02-12T23:18:58.839Z,102391.00
2023-02-12T23:21:28.114Z,102390.00
2023-02-12T23:23:56.695Z,102389.00
2023-02-12T23:26:24.925Z,102394.00
2023-02-12T23:28:53.165Z,102388.00
2023-02-12T23:31:21.912Z,102381.00
2023-02-12T23:33:50.066Z,102374.00
2023-02-12T23:36:18.144Z,102381.00
2023-02-12T23:38:46.423Z,102386.00
2023-02-12T23:41:14.570Z,102378.00
2023-02-12T23:43:42.480Z,102385.00
2023-02-12T23:46:10.567Z,102376.00
2023-02-12T23:48:38.849Z,102372.00
2023-02-12T23:51:07.019Z,102376.00
2023-02-12T23:53:35.106Z,102375.00
2023-02-12T23:56:03.228Z,102374.00
2023-02-12T23:58:31.191Z,102377.00
